createdAt,value
2023-03-21T00:04:06.950Z,9.31
2023-03-21T00:09:10.959Z,9.36
2023-03-21T00:14:15.167Z,9.39
2023-03-21T00:19:19.315Z,9.41
2023-03-21T00:24:23.477Z,9.42
2023-03-21T00:29:27.741Z,9.41
2023-03-21T00:34:42.829Z,9.43
2023-03-21T00:39:35.976Z,9.45
2023-03-21T00:44:40.083Z,9.48
2023-03-21T00:49:44.292Z,9.52
2023-03-21T00:54:48.418Z,9.50
2023-03-21T00:59:52.611Z,9.51
2023-03-21T01:04:54.863Z,9.55
2023-03-21T01:09:58.999Z,9.57
2023-03-21T01:15:01.277Z,9.63
2023-03-21T01:20:05.452Z,9.70
2023-03-21T01:25:21.968Z,9.71
2023-03-21T01:30:19.613Z,9.69
2023-03-21T01:35:17.958Z,9.66
2023-03-21T01:40:22.128Z,9.58
2023-03-21T01:45:26.302Z,9.55
2023-03-21T01:50:30.423Z,9.54
2023-03-21T01:55:34.589Z,9.52
2023-03-21T02:00:38.891Z,9.49
2023-03-21T02:05:42.928Z,9.48
2023-03-21T02:10:48.858Z,9.46
2023-03-21T02:15:51.199Z,9.44
2023-03-21T02:20:55.381Z,9.42
2023-03-21T02:25:59.564Z,9.40
2023-03-21T02:31:03.739Z,9.39
2023-03-21T02:36:14.004Z,9.35
2023-03-21T02:41:18.407Z,9.33
2023-03-21T02:46:16.212Z,9.30
2023-03-21T02:51:20.389Z,9.31
2023-03-21T02:56:24.524Z,9.30
2023-03-21T03:01:26.841Z,9.29
2023-03-21T03:06:30.938Z,9.24
2023-03-21T03:11:33.225Z,9.20
2023-03-21T03:16:37.402Z,9.16
2023-03-21T03:26:45.694Z,9.11
2023-03-21T03:31:49.917Z,9.06
2023-03-21T03:36:54.028Z,8.99
2023-03-21T03:42:18.017Z,8.91
2023-03-21T03:47:02.339Z,8.85
2023-03-21T03:52:06.511Z,8.81
2023-03-21T03:57:10.679Z,8.81
2023-03-21T04:02:14.998Z,8.82
2023-03-21T04:07:19.011Z,8.82
2023-03-21T04:12:23.153Z,8.82
2023-03-21T04:17:27.325Z,8.79
2023-03-21T04:22:31.467Z,8.76
2023-03-21T04:27:35.678Z,8.69
2023-03-21T04:32:39.816Z,8.57
2023-03-21T04:37:43.962Z,8.50
2023-03-21T04:42:48.140Z,8.48
2023-03-21T04:47:52.302Z,8.51
2023-03-21T04:52:56.466Z,8.52
2023-03-21T04:58:00.673Z,8.52
2023-03-21T05:03:02.865Z,8.51
2023-03-21T05:13:11.215Z,8.67
2023-03-21T05:18:13.484Z,8.69
2023-03-21T05:23:17.655Z,8.68
2023-03-21T05:28:21.777Z,8.74
2023-03-21T05:33:25.970Z,8.79
2023-03-21T05:38:30.117Z,8.81
2023-03-21T05:43:34.266Z,8.85
2023-03-21T05:48:38.447Z,8.92
2023-03-21T05:53:42.596Z,8.99
2023-03-21T05:58:46.797Z,9.07
2023-03-21T06:03:51.003Z,9.10
2023-03-21T06:08:55.073Z,9.13
2023-03-21T06:13:59.257Z,9.20
2023-03-21T06:19:03.428Z,9.24
2023-03-21T06:24:07.576Z,9.25
2023-03-21T06:29:11.764Z,9.23
2023-03-21T06:34:15.877Z,9.23
2023-03-21T06:39:20.064Z,9.24
2023-03-21T06:44:24.273Z,9.23
2023-03-21T06:49:28.411Z,9.22
2023-03-21T06:54:32.557Z,9.23
2023-03-21T06:59:36.935Z,9.22
2023-03-21T07:04:38.952Z,9.22
2023-03-21T07:09:43.125Z,9.24
2023-03-21T07:14:45.398Z,9.30
2023-03-21T07:19:49.587Z,9.30
2023-03-21T07:25:04.379Z,9.26
2023-03-21T07:29:57.902Z,9.24
2023-03-21T07:35:02.057Z,9.29
2023-03-21T07:40:06.217Z,9.30
2023-03-21T07:45:10.400Z,9.33
2023-03-21T07:50:14.547Z,9.43
2023-03-21T07:55:18.710Z,9.52
2023-03-21T08:00:23.202Z,9.61
2023-03-21T08:05:27.016Z,9.72
2023-03-21T08:10:31.194Z,9.81
2023-03-21T08:15:35.483Z,9.84
2023-03-21T08:20:39.529Z,9.85
2023-03-21T08:25:43.690Z,9.88
2023-03-21T08:30:47.876Z,9.96
2023-03-21T08:35:52.006Z,10.13
2023-03-21T08:40:57.231Z,10.19
2023-03-21T08:46:00.374Z,10.26
2023-03-21T08:51:04.469Z,10.35
2023-03-21T08:56:08.638Z,10.39
2023-03-21T09:01:10.929Z,10.37
2023-03-21T09:06:15.043Z,10.38
2023-03-21T09:11:19.254Z,10.39
2023-03-21T09:16:23.420Z,10.28
2023-03-21T09:21:27.543Z,10.20
2023-03-21T09:26:31.723Z,10.22
2023-03-21T09:31:35.869Z,10.27
2023-03-21T09:36:40.018Z,10.23
2023-03-21T09:41:44.218Z,10.25
2023-03-21T09:46:48.391Z,10.23
2023-03-21T09:51:52.542Z,10.23
2023-03-21T09:56:56.726Z,10.31
2023-03-21T10:02:00.870Z,10.33
2023-03-21T10:07:05.002Z,10.39
2023-03-21T10:12:09.198Z,10.42
2023-03-21T10:17:13.341Z,10.48
2023-03-21T10:22:17.481Z,10.55
2023-03-21T10:27:21.665Z,10.64
2023-03-21T10:32:25.800Z,10.70
2023-03-21T10:37:29.969Z,10.68
2023-03-21T10:42:34.162Z,10.78
2023-03-21T10:47:36.712Z,10.87
2023-03-21T10:52:40.564Z,10.93
2023-03-21T10:57:42.868Z,10.98
2023-03-21T11:02:47.009Z,11.01
2023-03-21T11:07:51.125Z,11.12
2023-03-21T11:12:55.303Z,11.20
2023-03-21T11:17:59.484Z,11.31
2023-03-21T11:23:03.636Z,11.46
2023-03-21T11:28:07.783Z,11.66
2023-03-21T11:33:11.979Z,11.84
2023-03-21T11:38:16.115Z,11.99
2023-03-21T11:43:20.320Z,11.97
2023-03-21T11:48:24.612Z,12.02
2023-03-21T11:53:28.624Z,11.97
2023-03-21T11:58:32.795Z,11.94
2023-03-21T12:03:47.095Z,11.86
2023-03-21T12:08:41.096Z,12.06
2023-03-21T12:13:45.251Z,12.25
2023-03-21T12:18:49.412Z,12.25
2023-03-21T12:23:53.579Z,12.13
2023-03-21T12:28:57.721Z,12.03
2023-03-21T12:34:01.885Z,12.02
2023-03-21T12:39:06.024Z,12.00
2023-03-21T12:44:08.305Z,12.04
2023-03-21T12:49:12.453Z,11.96
2023-03-21T12:54:14.738Z,11.83
2023-03-21T12:59:18.899Z,11.80
2023-03-21T13:04:23.148Z,11.66
2023-03-21T13:09:36.769Z,11.51
2023-03-21T13:14:31.381Z,11.49
2023-03-21T13:19:33.664Z,11.53
2023-03-21T13:24:37.833Z,11.59
2023-03-21T13:29:41.987Z,11.59
2023-03-21T13:34:46.152Z,11.54
2023-03-21T13:39:50.314Z,11.58
2023-03-21T13:44:54.443Z,11.63
2023-03-21T13:49:58.639Z,11.53
2023-03-21T14:00:06.931Z,11.65
2023-03-21T14:05:11.190Z,11.60
2023-03-21T14:10:15.484Z,11.71
2023-03-21T14:15:19.614Z,11.74
2023-03-21T14:20:23.707Z,11.81
2023-03-21T14:25:31.456Z,11.84
2023-03-21T14:30:31.957Z,11.88
2023-03-21T14:35:36.237Z,11.85
2023-03-21T14:40:40.676Z,11.93
2023-03-21T14:45:42.508Z,11.93
2023-03-21T14:50:46.690Z,11.94
2023-03-21T14:55:48.918Z,11.99
2023-03-21T15:00:53.062Z,12.06
2023-03-21T15:05:57.275Z,11.95
2023-03-21T15:11:07.345Z,11.93
2023-03-21T15:16:05.611Z,11.89
2023-03-21T15:21:09.757Z,12.06
2023-03-21T15:26:13.882Z,11.98
2023-03-21T15:31:18.155Z,12.02
2023-03-21T15:36:22.320Z,12.21
2023-03-21T15:41:26.393Z,12.55
2023-03-21T15:46:30.585Z,12.71
2023-03-21T15:51:34.674Z,12.89
2023-03-21T15:56:38.864Z,12.54
2023-03-21T16:01:43.101Z,12.61
2023-03-21T16:06:47.196Z,12.58
2023-03-21T16:11:51.309Z,12.69
2023-03-21T16:16:55.500Z,13.36
2023-03-21T16:21:59.649Z,15.34
2023-03-21T16:27:03.844Z,14.69
2023-03-21T16:32:08.033Z,15.94
2023-03-21T16:37:12.161Z,16.14
2023-03-21T16:42:14.397Z,14.17
2023-03-21T16:47:18.557Z,14.72
2023-03-21T16:52:20.878Z,14.46
2023-03-21T16:57:24.994Z,13.43
2023-03-21T17:02:29.184Z,12.60
2023-03-21T17:07:33.352Z,12.10
2023-03-21T17:12:37.483Z,11.99
2023-03-21T17:17:41.637Z,11.94
2023-03-21T17:22:45.792Z,11.86
2023-03-21T17:27:49.984Z,11.76
2023-03-21T17:32:54.113Z,11.69
2023-03-21T17:37:58.487Z,11.65
2023-03-21T17:43:02.451Z,11.61
2023-03-21T17:48:06.568Z,11.58
2023-03-21T17:53:10.778Z,11.55
2023-03-21T17:58:14.915Z,11.54
2023-03-21T18:03:19.753Z,11.51
2023-03-21T18:13:27.376Z,11.49
2023-03-21T18:18:31.569Z,11.44
2023-03-21T18:23:35.716Z,11.43
2023-03-21T18:28:41.162Z,11.40
2023-03-21T18:33:44.052Z,11.42
2023-03-21T18:38:48.209Z,11.45
2023-03-21T18:44:13.567Z,11.37
2023-03-21T18:48:55.254Z,11.29
2023-03-21T18:53:58.783Z,11.23
2023-03-21T18:59:01.121Z,11.14
2023-03-21T19:04:21.016Z,11.10
2023-03-21T19:09:09.919Z,11.04
2023-03-21T19:14:13.543Z,11.02
2023-03-21T19:19:17.823Z,11.01
2023-03-21T19:24:27.774Z,10.99
2023-03-21T19:29:26.227Z,10.98
2023-03-21T19:34:30.176Z,11.01
2023-03-21T19:39:34.335Z,11.01
2023-03-21T19:44:38.627Z,11.01
2023-03-21T19:50:30.646Z,11.02
2023-03-21T19:54:46.864Z,11.02
2023-03-21T19:59:50.988Z,11.06
2023-03-21T20:04:55.161Z,11.06
2023-03-21T20:09:59.334Z,11.07
2023-03-21T20:15:12.034Z,11.09
2023-03-21T20:20:07.655Z,11.19
2023-03-21T20:25:11.787Z,11.18
2023-03-21T20:30:15.968Z,11.14
2023-03-21T20:35:31.524Z,11.14
2023-03-21T20:40:24.286Z,11.08
2023-03-21T20:45:26.536Z,11.02
2023-03-21T20:50:30.902Z,11.02
2023-03-21T20:55:34.899Z,11.04
2023-03-21T21:00:39.281Z,11.00
2023-03-21T21:05:41.315Z,10.90
2023-03-21T21:11:19.065Z,10.74
2023-03-21T21:15:49.707Z,10.67
2023-03-21T21:20:53.860Z,10.58
2023-03-21T21:25:57.947Z,10.49
2023-03-21T21:31:02.203Z,10.45
2023-03-21T21:36:06.346Z,10.37
2023-03-21T21:41:10.433Z,10.34
2023-03-21T21:46:14.674Z,10.24
2023-03-21T21:51:18.792Z,10.21
2023-03-21T22:01:27.178Z,10.25
2023-03-21T22:06:31.239Z,10.27
2023-03-21T22:11:35.426Z,10.25
2023-03-21T22:16:39.746Z,10.23
2023-03-21T22:21:43.721Z,10.21
2023-03-21T22:26:47.960Z,10.24
2023-03-21T22:31:52.141Z,10.35
2023-03-21T22:36:56.214Z,10.47
2023-03-21T22:42:00.400Z,10.52
2023-03-21T22:47:04.529Z,10.60
2023-03-21T22:52:08.716Z,10.63
2023-03-21T22:57:10.996Z,10.66
2023-03-21T23:02:15.173Z,10.58
2023-03-21T23:07:17.434Z,10.60
2023-03-21T23:12:21.565Z,10.68
2023-03-21T23:17:25.700Z,10.70
2023-03-21T23:22:29.890Z,10.78
2023-03-21T23:27:34.026Z,10.70
2023-03-21T23:32:38.228Z,10.74
2023-03-21T23:37:42.465Z,10.82
2023-03-21T23:42:46.512Z,10.81
2023-03-21T23:47:50.741Z,10.79
2023-03-21T23:52:54.836Z,10.77
2023-03-21T23:57:59.061Z,10.76
